sensor_id;sensor_type;location;lat;lon;timestamp;temperature;humidity
12655;DHT22;6392;44.644;11.448;2022-12-24T00:00:34;9.60;99.90
12655;DHT22;6392;44.644;11.448;2022-12-24T00:03:02;9.60;99.90
12655;DHT22;6392;44.644;11.448;2022-12-24T00:05:29;9.60;99.90
12655;DHT22;6392;44.644;11.448;2022-12-24T00:07:56;9.60;99.90
12655;DHT22;6392;44.644;11.448;2022-12-24T00:10:25;9.60;99.90
12655;DHT22;6392;44.644;11.448;2022-12-24T00:12:52;9.60;99.90
12655;DHT22;6392;44.644;11.448;2022-12-24T00:15:19;9.60;99.90
12655;DHT22;6392;44.644;11.448;2022-12-24T00:17:46;9.60;99.90
12655;DHT22;6392;44.644;11.448;2022-12-24T00:20:13;9.60;99.90
12655;DHT22;6392;44.644;11.448;2022-12-24T00:22:40;9.60;99.90
12655;DHT22;6392;44.644;11.448;2022-12-24T00:25:08;9.60;99.90
12655;DHT22;6392;44.644;11.448;2022-12-24T00:27:36;9.60;99.90
12655;DHT22;6392;44.644;11.448;2022-12-24T00:30:05;9.50;99.90
12655;DHT22;6392;44.644;11.448;2022-12-24T00:32:32;9.60;99.90
12655;DHT22;6392;44.644;11.448;2022-12-24T00:34:59;9.60;99.90
12655;DHT22;6392;44.644;11.448;2022-12-24T00:37:26;9.60;99.90
12655;DHT22;6392;44.644;11.448;2022-12-24T00:39:53;9.60;99.90
12655;DHT22;6392;44.644;11.448;2022-12-24T00:42:21;9.60;99.90
12655;DHT22;6392;44.644;11.448;2022-12-24T00:44:49;9.60;99.90
12655;DHT22;6392;44.644;11.448;2022-12-24T00:47:16;9.60;99.90
12655;DHT22;6392;44.644;11.448;2022-12-24T00:49:43;9.60;99.90
12655;DHT22;6392;44.644;11.448;2022-12-24T00:52:10;9.50;99.90
12655;DHT22;6392;44.644;11.448;2022-12-24T00:54:37;9.50;99.90
12655;DHT22;6392;44.644;11.448;2022-12-24T00:57:04;9.50;99.90
12655;DHT22;6392;44.644;11.448;2022-12-24T00:59:31;9.50;99.90
12655;DHT22;6392;44.644;11.448;2022-12-24T01:02:00;9.30;99.90
12655;DHT22;6392;44.644;11.448;2022-12-24T01:04:27;9.60;99.90
12655;DHT22;6392;44.644;11.448;2022-12-24T01:07:12;9.50;99.90
12655;DHT22;6392;44.644;11.448;2022-12-24T01:09:39;9.50;99.90
12655;DHT22;6392;44.644;11.448;2022-12-24T01:12:06;9.50;99.90
12655;DHT22;6392;44.644;11.448;2022-12-24T01:14:33;9.50;99.90
12655;DHT22;6392;44.644;11.448;2022-12-24T01:17:02;9.50;99.90
12655;DHT22;6392;44.644;11.448;2022-12-24T01:19:29;9.50;99.90
12655;DHT22;6392;44.644;11.448;2022-12-24T01:21:57;9.50;99.90
12655;DHT22;6392;44.644;11.448;2022-12-24T01:24:24;9.50;99.90
12655;DHT22;6392;44.644;11.448;2022-12-24T01:26:51;9.50;99.90
12655;DHT22;6392;44.644;11.448;2022-12-24T01:29:18;9.50;99.90
12655;DHT22;6392;44.644;11.448;2022-12-24T01:31:45;9.50;99.90
12655;DHT22;6392;44.644;11.448;2022-12-24T01:34:13;9.50;99.90
12655;DHT22;6392;44.644;11.448;2022-12-24T01:36:40;9.50;99.90
12655;DHT22;6392;44.644;11.448;2022-12-24T01:39:07;9.50;99.90
12655;DHT22;6392;44.644;11.448;2022-12-24T01:41:35;9.50;99.90
12655;DHT22;6392;44.644;11.448;2022-12-24T01:44:22;9.50;99.90
12655;DHT22;6392;44.644;11.448;2022-12-24T01:46:52;9.50;99.90
12655;DHT22;6392;44.644;11.448;2022-12-24T01:49:21;9.50;99.90
12655;DHT22;6392;44.644;11.448;2022-12-24T01:51:51;9.50;99.90
12655;DHT22;6392;44.644;11.448;2022-12-24T01:54:22;9.40;99.90
12655;DHT22;6392;44.644;11.448;2022-12-24T01:56:53;9.40;99.90
12655;DHT22;6392;44.644;11.448;2022-12-24T01:59:23;9.40;99.90
12655;DHT22;6392;44.644;11.448;2022-12-24T02:01:50;9.40;99.90
12655;DHT22;6392;44.644;11.448;2022-12-24T02:04:31;9.40;99.90
12655;DHT22;6392;44.644;11.448;2022-12-24T02:07:00;9.40;99.90
12655;DHT22;6392;44.644;11.448;2022-12-24T02:09:27;9.40;99.90
12655;DHT22;6392;44.644;11.448;2022-12-24T02:11:54;9.40;99.90
12655;DHT22;6392;44.644;11.448;2022-12-24T02:14:22;9.40;99.90
12655;DHT22;6392;44.644;11.448;2022-12-24T02:16:55;9.40;99.90
12655;DHT22;6392;44.644;11.448;2022-12-24T02:22:51;9.40;99.90
12655;DHT22;6392;44.644;11.448;2022-12-24T02:25:40;9.30;99.90
12655;DHT22;6392;44.644;11.448;2022-12-24T02:28:16;9.40;99.90
12655;DHT22;6392;44.644;11.448;2022-12-24T02:30:51;9.40;99.90
12655;DHT22;6392;44.644;11.448;2022-12-24T02:33:24;9.30;99.90
12655;DHT22;6392;44.644;11.448;2022-12-24T02:35:56;9.40;99.90
12655;DHT22;6392;44.644;11.448;2022-12-24T02:38:27;9.30;99.90
12655;DHT22;6392;44.644;11.448;2022-12-24T02:40:58;9.30;99.90
12655;DHT22;6392;44.644;11.448;2022-12-24T02:43:30;9.30;99.90
12655;DHT22;6392;44.644;11.448;2022-12-24T02:46:02;9.30;99.90
12655;DHT22;6392;44.644;11.448;2022-12-24T02:48:31;9.30;99.90
12655;DHT22;6392;44.644;11.448;2022-12-24T02:51:01;9.30;99.90
12655;DHT22;6392;44.644;11.448;2022-12-24T02:53:29;9.30;99.90
12655;DHT22;6392;44.644;11.448;2022-12-24T02:59:16;9.30;99.90
12655;DHT22;6392;44.644;11.448;2022-12-24T03:01:56;9.40;99.90
12655;DHT22;6392;44.644;11.448;2022-12-24T03:04:31;9.40;99.90
12655;DHT22;6392;44.644;11.448;2022-12-24T03:07:13;9.30;99.90
12655;DHT22;6392;44.644;11.448;2022-12-24T03:09:52;9.30;99.90
12655;DHT22;6392;44.644;11.448;2022-12-24T03:12:25;9.30;99.90
12655;DHT22;6392;44.644;11.448;2022-12-24T03:14:54;9.40;99.90
12655;DHT22;6392;44.644;11.448;2022-12-24T03:17:22;9.40;99.90
12655;DHT22;6392;44.644;11.448;2022-12-24T03:19:49;9.40;99.90
12655;DHT22;6392;44.644;11.448;2022-12-24T03:22:17;9.40;99.90
12655;DHT22;6392;44.644;11.448;2022-12-24T03:24:44;9.40;99.90
12655;DHT22;6392;44.644;11.448;2022-12-24T03:27:12;9.40;99.90
12655;DHT22;6392;44.644;11.448;2022-12-24T03:29:39;9.40;99.90
12655;DHT22;6392;44.644;11.448;2022-12-24T03:32:07;9.40;99.90
12655;DHT22;6392;44.644;11.448;2022-12-24T03:34:35;9.50;99.90
12655;DHT22;6392;44.644;11.448;2022-12-24T03:37:03;9.50;99.90
12655;DHT22;6392;44.644;11.448;2022-12-24T03:39:30;9.50;99.90
12655;DHT22;6392;44.644;11.448;2022-12-24T03:41:57;9.40;99.90
12655;DHT22;6392;44.644;11.448;2022-12-24T03:44:24;9.40;99.90
12655;DHT22;6392;44.644;11.448;2022-12-24T03:46:51;9.40;99.90
12655;DHT22;6392;44.644;11.448;2022-12-24T03:49:18;9.40;99.90
12655;DHT22;6392;44.644;11.448;2022-12-24T03:51:46;9.40;99.90
12655;DHT22;6392;44.644;11.448;2022-12-24T03:54:13;9.40;99.90
12655;DHT22;6392;44.644;11.448;2022-12-24T03:56:40;9.40;99.90
12655;DHT22;6392;44.644;11.448;2022-12-24T03:59:07;9.40;99.90
12655;DHT22;6392;44.644;11.448;2022-12-24T04:01:34;9.40;99.90
12655;DHT22;6392;44.644;11.448;2022-12-24T04:04:01;9.40;99.90
12655;DHT22;6392;44.644;11.448;2022-12-24T04:06:28;9.40;99.90
12655;DHT22;6392;44.644;11.448;2022-12-24T04:08:57;9.40;99.90
12655;DHT22;6392;44.644;11.448;2022-12-24T04:11:26;9.40;99.90
12655;DHT22;6392;44.644;11.448;2022-12-24T04:13:53;9.40;99.90
12655;DHT22;6392;44.644;11.448;2022-12-24T04:16:20;9.40;99.90
12655;DHT22;6392;44.644;11.448;2022-12-24T04:18:47;9.40;99.90
12655;DHT22;6392;44.644;11.448;2022-12-24T04:21:15;9.40;99.90
12655;DHT22;6392;44.644;11.448;2022-12-24T04:23:42;9.40;99.90
12655;DHT22;6392;44.644;11.448;2022-12-24T04:26:12;9.40;99.90
12655;DHT22;6392;44.644;11.448;2022-12-24T04:28:40;9.40;99.90
12655;DHT22;6392;44.644;11.448;2022-12-24T04:31:08;9.40;99.90
12655;DHT22;6392;44.644;11.448;2022-12-24T04:33:37;9.40;99.90
12655;DHT22;6392;44.644;11.448;2022-12-24T04:36:06;9.40;99.90
12655;DHT22;6392;44.644;11.448;2022-12-24T04:38:33;9.40;99.90
12655;DHT22;6392;44.644;11.448;2022-12-24T04:41:03;9.40;99.90
12655;DHT22;6392;44.644;11.448;2022-12-24T04:43:31;9.40;99.90
12655;DHT22;6392;44.644;11.448;2022-12-24T04:46:04;9.40;99.90
12655;DHT22;6392;44.644;11.448;2022-12-24T04:48:31;9.50;99.90
12655;DHT22;6392;44.644;11.448;2022-12-24T04:51:00;9.40;99.90
12655;DHT22;6392;44.644;11.448;2022-12-24T04:53:28;9.40;99.90
12655;DHT22;6392;44.644;11.448;2022-12-24T04:55:55;9.50;99.90
12655;DHT22;6392;44.644;11.448;2022-12-24T04:58:22;9.50;99.90
12655;DHT22;6392;44.644;11.448;2022-12-24T05:00:50;9.40;99.90
12655;DHT22;6392;44.644;11.448;2022-12-24T05:03:17;9.40;99.90
12655;DHT22;6392;44.644;11.448;2022-12-24T05:05:45;9.40;99.90
12655;DHT22;6392;44.644;11.448;2022-12-24T05:08:12;9.40;99.90
12655;DHT22;6392;44.644;11.448;2022-12-24T05:10:39;9.50;99.90
12655;DHT22;6392;44.644;11.448;2022-12-24T05:13:06;9.40;99.90
12655;DHT22;6392;44.644;11.448;2022-12-24T05:15:33;9.40;99.90
12655;DHT22;6392;44.644;11.448;2022-12-24T05:18:01;9.40;99.90
12655;DHT22;6392;44.644;11.448;2022-12-24T05:20:28;9.40;99.90
12655;DHT22;6392;44.644;11.448;2022-12-24T05:22:55;9.40;99.90
12655;DHT22;6392;44.644;11.448;2022-12-24T05:25:39;9.40;99.90
12655;DHT22;6392;44.644;11.448;2022-12-24T05:28:24;9.40;99.90
12655;DHT22;6392;44.644;11.448;2022-12-24T05:30:51;9.40;99.90
12655;DHT22;6392;44.644;11.448;2022-12-24T05:33:19;9.40;99.90
12655;DHT22;6392;44.644;11.448;2022-12-24T05:35:46;9.40;99.90
12655;DHT22;6392;44.644;11.448;2022-12-24T05:38:13;9.40;99.90
12655;DHT22;6392;44.644;11.448;2022-12-24T05:40:40;9.40;99.90
12655;DHT22;6392;44.644;11.448;2022-12-24T05:43:07;9.40;99.90
12655;DHT22;6392;44.644;11.448;2022-12-24T05:45:34;9.40;99.90
12655;DHT22;6392;44.644;11.448;2022-12-24T05:48:01;9.40;99.90
12655;DHT22;6392;44.644;11.448;2022-12-24T05:50:30;9.40;99.90
12655;DHT22;6392;44.644;11.448;2022-12-24T05:52:57;9.40;99.90
12655;DHT22;6392;44.644;11.448;2022-12-24T05:55:24;9.40;99.90
12655;DHT22;6392;44.644;11.448;2022-12-24T05:57:51;9.40;99.90
12655;DHT22;6392;44.644;11.448;2022-12-24T06:00:19;9.50;99.90
12655;DHT22;6392;44.644;11.448;2022-12-24T06:02:46;9.50;99.90
12655;DHT22;6392;44.644;11.448;2022-12-24T06:05:13;9.50;99.90
12655;DHT22;6392;44.644;11.448;2022-12-24T06:07:42;9.40;99.90
12655;DHT22;6392;44.644;11.448;2022-12-24T06:10:09;9.40;99.90
12655;DHT22;6392;44.644;11.448;2022-12-24T06:12:36;9.40;99.90
12655;DHT22;6392;44.644;11.448;2022-12-24T06:15:04;9.40;99.90
12655;DHT22;6392;44.644;11.448;2022-12-24T06:17:31;9.40;99.90
12655;DHT22;6392;44.644;11.448;2022-12-24T06:19:58;9.50;99.90
12655;DHT22;6392;44.644;11.448;2022-12-24T06:22:25;9.50;99.90
12655;DHT22;6392;44.644;11.448;2022-12-24T06:24:54;9.50;99.90
12655;DHT22;6392;44.644;11.448;2022-12-24T06:27:21;9.40;99.90
12655;DHT22;6392;44.644;11.448;2022-12-24T06:29:48;9.40;99.90
12655;DHT22;6392;44.644;11.448;2022-12-24T06:32:15;9.50;99.90
12655;DHT22;6392;44.644;11.448;2022-12-24T06:34:42;9.40;99.90
12655;DHT22;6392;44.644;11.448;2022-12-24T06:37:09;9.50;99.90
12655;DHT22;6392;44.644;11.448;2022-12-24T06:39:43;9.50;99.90
12655;DHT22;6392;44.644;11.448;2022-12-24T06:42:12;9.50;99.90
12655;DHT22;6392;44.644;11.448;2022-12-24T06:44:39;9.50;99.90
12655;DHT22;6392;44.644;11.448;2022-12-24T06:47:06;9.50;99.90
12655;DHT22;6392;44.644;11.448;2022-12-24T06:49:33;9.50;99.90
12655;DHT22;6392;44.644;11.448;2022-12-24T06:52:01;9.50;99.90
12655;DHT22;6392;44.644;11.448;2022-12-24T06:54:28;9.50;99.90
12655;DHT22;6392;44.644;11.448;2022-12-24T06:56:55;9.50;99.90
12655;DHT22;6392;44.644;11.448;2022-12-24T06:59:23;9.60;99.90
12655;DHT22;6392;44.644;11.448;2022-12-24T07:01:50;9.60;99.90
12655;DHT22;6392;44.644;11.448;2022-12-24T07:04:17;9.60;99.90
12655;DHT22;6392;44.644;11.448;2022-12-24T07:06:44;9.50;99.90
12655;DHT22;6392;44.644;11.448;2022-12-24T07:09:12;9.50;99.90
12655;DHT22;6392;44.644;11.448;2022-12-24T07:11:39;9.50;99.90
12655;DHT22;6392;44.644;11.448;2022-12-24T07:14:06;9.50;99.90
12655;DHT22;6392;44.644;11.448;2022-12-24T07:16:35;9.50;99.90
12655;DHT22;6392;44.644;11.448;2022-12-24T07:19:02;9.50;99.90
12655;DHT22;6392;44.644;11.448;2022-12-24T07:21:29;9.50;99.90
12655;DHT22;6392;44.644;11.448;2022-12-24T07:23:56;9.50;99.90
12655;DHT22;6392;44.644;11.448;2022-12-24T07:26:23;9.50;99.90
12655;DHT22;6392;44.644;11.448;2022-12-24T07:28:50;9.50;99.90
12655;DHT22;6392;44.644;11.448;2022-12-24T07:31:17;9.50;99.90
12655;DHT22;6392;44.644;11.448;2022-12-24T07:33:45;9.50;99.90
12655;DHT22;6392;44.644;11.448;2022-12-24T07:36:17;9.50;99.90
12655;DHT22;6392;44.644;11.448;2022-12-24T07:38:44;9.50;99.90
12655;DHT22;6392;44.644;11.448;2022-12-24T07:41:11;9.50;99.90
12655;DHT22;6392;44.644;11.448;2022-12-24T07:43:38;9.60;99.90
12655;DHT22;6392;44.644;11.448;2022-12-24T07:46:06;9.60;99.90
12655;DHT22;6392;44.644;11.448;2022-12-24T07:48:33;9.60;99.90
12655;DHT22;6392;44.644;11.448;2022-12-24T07:51:01;9.60;99.90
12655;DHT22;6392;44.644;11.448;2022-12-24T07:53:29;9.60;99.90
12655;DHT22;6392;44.644;11.448;2022-12-24T07:55:57;9.60;99.90
12655;DHT22;6392;44.644;11.448;2022-12-24T07:58:24;9.60;99.90
12655;DHT22;6392;44.644;11.448;2022-12-24T08:00:55;9.60;99.90
12655;DHT22;6392;44.644;11.448;2022-12-24T08:03:22;9.60;99.90
12655;DHT22;6392;44.644;11.448;2022-12-24T08:05:50;9.60;99.90
12655;DHT22;6392;44.644;11.448;2022-12-24T08:08:19;9.60;99.90
12655;DHT22;6392;44.644;11.448;2022-12-24T08:10:47;9.60;99.90
12655;DHT22;6392;44.644;11.448;2022-12-24T08:13:14;9.70;99.90
12655;DHT22;6392;44.644;11.448;2022-12-24T08:15:42;9.80;99.90
12655;DHT22;6392;44.644;11.448;2022-12-24T08:18:09;9.80;99.90
12655;DHT22;6392;44.644;11.448;2022-12-24T08:20:37;9.90;99.90
12655;DHT22;6392;44.644;11.448;2022-12-24T08:23:04;9.90;99.90
12655;DHT22;6392;44.644;11.448;2022-12-24T08:25:33;9.80;99.90
12655;DHT22;6392;44.644;11.448;2022-12-24T08:28:01;9.80;99.90
12655;DHT22;6392;44.644;11.448;2022-12-24T08:30:28;9.80;99.90
12655;DHT22;6392;44.644;11.448;2022-12-24T08:32:55;9.80;99.90
12655;DHT22;6392;44.644;11.448;2022-12-24T08:35:22;9.80;99.90
12655;DHT22;6392;44.644;11.448;2022-12-24T08:37:49;9.80;99.90
12655;DHT22;6392;44.644;11.448;2022-12-24T08:40:16;9.80;99.90
12655;DHT22;6392;44.644;11.448;2022-12-24T08:42:45;9.80;99.90
12655;DHT22;6392;44.644;11.448;2022-12-24T08:45:12;9.80;99.90
12655;DHT22;6392;44.644;11.448;2022-12-24T08:47:39;9.80;99.90
12655;DHT22;6392;44.644;11.448;2022-12-24T08:50:07;9.90;99.90
12655;DHT22;6392;44.644;11.448;2022-12-24T08:52:35;9.90;99.90
12655;DHT22;6392;44.644;11.448;2022-12-24T08:55:03;10.00;99.90
12655;DHT22;6392;44.644;11.448;2022-12-24T08:57:30;10.00;99.90
12655;DHT22;6392;44.644;11.448;2022-12-24T09:00:02;10.00;99.90
12655;DHT22;6392;44.644;11.448;2022-12-24T09:02:30;10.00;99.90
12655;DHT22;6392;44.644;11.448;2022-12-24T09:04:57;9.90;99.90
12655;DHT22;6392;44.644;11.448;2022-12-24T09:07:24;9.90;99.90
12655;DHT22;6392;44.644;11.448;2022-12-24T09:09:51;9.90;99.90
12655;DHT22;6392;44.644;11.448;2022-12-24T09:12:18;9.90;99.90
12655;DHT22;6392;44.644;11.448;2022-12-24T09:14:45;10.00;99.90
12655;DHT22;6392;44.644;11.448;2022-12-24T09:17:13;10.00;99.90
12655;DHT22;6392;44.644;11.448;2022-12-24T09:19:40;10.00;99.90
12655;DHT22;6392;44.644;11.448;2022-12-24T09:22:08;9.90;99.90
12655;DHT22;6392;44.644;11.448;2022-12-24T09:24:35;9.90;99.90
12655;DHT22;6392;44.644;11.448;2022-12-24T09:27:02;10.00;99.90
12655;DHT22;6392;44.644;11.448;2022-12-24T09:29:29;10.00;99.90
12655;DHT22;6392;44.644;11.448;2022-12-24T09:31:56;10.00;99.90
12655;DHT22;6392;44.644;11.448;2022-12-24T09:34:25;10.00;99.90
12655;DHT22;6392;44.644;11.448;2022-12-24T09:36:52;10.00;99.90
12655;DHT22;6392;44.644;11.448;2022-12-24T09:39:19;10.00;99.90
12655;DHT22;6392;44.644;11.448;2022-12-24T09:41:54;10.00;99.90
12655;DHT22;6392;44.644;11.448;2022-12-24T09:44:33;10.00;99.90
12655;DHT22;6392;44.644;11.448;2022-12-24T09:47:09;10.00;99.90
12655;DHT22;6392;44.644;11.448;2022-12-24T09:49:41;10.10;99.90
12655;DHT22;6392;44.644;11.448;2022-12-24T09:52:10;10.10;99.90
12655;DHT22;6392;44.644;11.448;2022-12-24T09:54:41;10.00;99.90
12655;DHT22;6392;44.644;11.448;2022-12-24T09:57:16;10.10;99.90
12655;DHT22;6392;44.644;11.448;2022-12-24T09:59:46;10.10;99.90
12655;DHT22;6392;44.644;11.448;2022-12-24T10:02:15;10.10;99.90
12655;DHT22;6392;44.644;11.448;2022-12-24T10:04:45;10.10;99.90
12655;DHT22;6392;44.644;11.448;2022-12-24T10:07:22;10.20;99.90
12655;DHT22;6392;44.644;11.448;2022-12-24T10:09:56;10.30;99.90
12655;DHT22;6392;44.644;11.448;2022-12-24T10:12:31;10.30;99.90
12655;DHT22;6392;44.644;11.448;2022-12-24T10:15:08;10.30;99.90
12655;DHT22;6392;44.644;11.448;2022-12-24T10:17:50;10.30;99.90
12655;DHT22;6392;44.644;11.448;2022-12-24T10:20:38;10.30;99.90
12655;DHT22;6392;44.644;11.448;2022-12-24T10:23:13;10.30;99.90
12655;DHT22;6392;44.644;11.448;2022-12-24T10:25:47;10.30;99.90
12655;DHT22;6392;44.644;11.448;2022-12-24T10:28:18;10.30;99.90
12655;DHT22;6392;44.644;11.448;2022-12-24T10:30:48;10.40;99.90
12655;DHT22;6392;44.644;11.448;2022-12-24T10:33:20;10.80;99.90
12655;DHT22;6392;44.644;11.448;2022-12-24T10:35:53;10.70;99.90
12655;DHT22;6392;44.644;11.448;2022-12-24T10:38:20;10.70;99.90
12655;DHT22;6392;44.644;11.448;2022-12-24T10:40:49;10.70;99.90
12655;DHT22;6392;44.644;11.448;2022-12-24T10:43:19;10.80;99.90
12655;DHT22;6392;44.644;11.448;2022-12-24T10:45:47;10.70;99.90
12655;DHT22;6392;44.644;11.448;2022-12-24T10:48:20;10.80;99.90
12655;DHT22;6392;44.644;11.448;2022-12-24T10:50:57;10.80;99.90
12655;DHT22;6392;44.644;11.448;2022-12-24T10:53:32;10.80;99.90
12655;DHT22;6392;44.644;11.448;2022-12-24T10:56:03;10.90;99.90
12655;DHT22;6392;44.644;11.448;2022-12-24T10:58:30;10.90;99.90
12655;DHT22;6392;44.644;11.448;2022-12-24T11:00:58;10.90;99.90
12655;DHT22;6392;44.644;11.448;2022-12-24T11:03:29;10.90;99.90
12655;DHT22;6392;44.644;11.448;2022-12-24T11:06:09;10.90;99.90
12655;DHT22;6392;44.644;11.448;2022-12-24T11:08:38;10.80;99.90
12655;DHT22;6392;44.644;11.448;2022-12-24T11:11:08;10.80;99.90
12655;DHT22;6392;44.644;11.448;2022-12-24T11:13:39;10.70;99.90
12655;DHT22;6392;44.644;11.448;2022-12-24T11:16:09;10.70;99.90
12655;DHT22;6392;44.644;11.448;2022-12-24T11:18:44;10.70;99.90
12655;DHT22;6392;44.644;11.448;2022-12-24T11:21:20;10.70;99.90
12655;DHT22;6392;44.644;11.448;2022-12-24T11:23:50;10.60;99.90
12655;DHT22;6392;44.644;11.448;2022-12-24T11:26:22;10.60;99.90
12655;DHT22;6392;44.644;11.448;2022-12-24T11:29:05;10.70;99.90
12655;DHT22;6392;44.644;11.448;2022-12-24T11:31:36;10.70;99.90
12655;DHT22;6392;44.644;11.448;2022-12-24T11:34:26;10.60;99.90
12655;DHT22;6392;44.644;11.448;2022-12-24T11:37:08;10.60;99.90
12655;DHT22;6392;44.644;11.448;2022-12-24T11:39:38;10.60;99.90
12655;DHT22;6392;44.644;11.448;2022-12-24T11:42:06;10.70;99.90
12655;DHT22;6392;44.644;11.448;2022-12-24T11:44:33;10.70;99.90
12655;DHT22;6392;44.644;11.448;2022-12-24T11:47:00;10.70;99.90
12655;DHT22;6392;44.644;11.448;2022-12-24T11:49:28;10.70;99.90
12655;DHT22;6392;44.644;11.448;2022-12-24T11:52:19;10.70;99.90
12655;DHT22;6392;44.644;11.448;2022-12-24T11:55:11;10.70;99.90
12655;DHT22;6392;44.644;11.448;2022-12-24T11:57:47;10.70;99.90
12655;DHT22;6392;44.644;11.448;2022-12-24T12:00:16;10.60;99.90
12655;DHT22;6392;44.644;11.448;2022-12-24T12:02:45;10.70;99.90
12655;DHT22;6392;44.644;11.448;2022-12-24T12:05:17;10.70;99.90
12655;DHT22;6392;44.644;11.448;2022-12-24T12:07:49;10.70;99.90
12655;DHT22;6392;44.644;11.448;2022-12-24T12:10:21;10.80;99.90
12655;DHT22;6392;44.644;11.448;2022-12-24T12:12:55;10.80;99.90
12655;DHT22;6392;44.644;11.448;2022-12-24T12:15:24;10.70;99.90
12655;DHT22;6392;44.644;11.448;2022-12-24T12:17:56;10.80;99.90
12655;DHT22;6392;44.644;11.448;2022-12-24T12:20:27;10.70;99.90
12655;DHT22;6392;44.644;11.448;2022-12-24T12:23:01;10.70;99.90
12655;DHT22;6392;44.644;11.448;2022-12-24T12:25:34;10.80;99.90
12655;DHT22;6392;44.644;11.448;2022-12-24T12:28:10;10.80;99.90
12655;DHT22;6392;44.644;11.448;2022-12-24T12:30:42;10.80;99.90
12655;DHT22;6392;44.644;11.448;2022-12-24T12:33:17;10.80;99.90
12655;DHT22;6392;44.644;11.448;2022-12-24T12:35:46;10.80;99.90
12655;DHT22;6392;44.644;11.448;2022-12-24T12:38:21;10.80;99.90
12655;DHT22;6392;44.644;11.448;2022-12-24T12:41:03;10.90;99.90
12655;DHT22;6392;44.644;11.448;2022-12-24T12:43:45;10.80;99.90
12655;DHT22;6392;44.644;11.448;2022-12-24T12:46:20;10.80;99.90
12655;DHT22;6392;44.644;11.448;2022-12-24T12:49:03;10.80;99.90
12655;DHT22;6392;44.644;11.448;2022-12-24T12:51:41;10.80;99.90
12655;DHT22;6392;44.644;11.448;2022-12-24T12:54:27;10.80;99.90
12655;DHT22;6392;44.644;11.448;2022-12-24T12:57:02;10.80;99.90
12655;DHT22;6392;44.644;11.448;2022-12-24T12:59:35;10.90;99.90
12655;DHT22;6392;44.644;11.448;2022-12-24T13:02:21;10.90;99.90
12655;DHT22;6392;44.644;11.448;2022-12-24T13:05:31;10.90;99.90
12655;DHT22;6392;44.644;11.448;2022-12-24T13:08:29;10.80;99.90
12655;DHT22;6392;44.644;11.448;2022-12-24T13:11:14;10.80;99.90
12655;DHT22;6392;44.644;11.448;2022-12-24T13:13:58;10.80;99.90
12655;DHT22;6392;44.644;11.448;2022-12-24T13:16:53;10.80;99.90
12655;DHT22;6392;44.644;11.448;2022-12-24T13:19:35;10.80;99.90
12655;DHT22;6392;44.644;11.448;2022-12-24T13:22:12;10.80;99.90
12655;DHT22;6392;44.644;11.448;2022-12-24T13:24:39;10.70;99.90
12655;DHT22;6392;44.644;11.448;2022-12-24T13:27:17;10.70;99.90
12655;DHT22;6392;44.644;11.448;2022-12-24T13:29:51;10.70;99.90
12655;DHT22;6392;44.644;11.448;2022-12-24T13:32:52;10.70;99.90
12655;DHT22;6392;44.644;11.448;2022-12-24T13:35:34;10.60;99.90
12655;DHT22;6392;44.644;11.448;2022-12-24T13:38:30;10.70;99.90
12655;DHT22;6392;44.644;11.448;2022-12-24T13:44:13;10.70;99.90
12655;DHT22;6392;44.644;11.448;2022-12-24T13:46:50;10.70;99.90
12655;DHT22;6392;44.644;11.448;2022-12-24T13:49:21;10.70;99.90
12655;DHT22;6392;44.644;11.448;2022-12-24T13:51:57;10.70;99.90
12655;DHT22;6392;44.644;11.448;2022-12-24T13:54:30;10.70;99.90
12655;DHT22;6392;44.644;11.448;2022-12-24T13:56:58;10.70;99.90
12655;DHT22;6392;44.644;11.448;2022-12-24T13:59:33;10.70;99.90
12655;DHT22;6392;44.644;11.448;2022-12-24T14:02:01;10.70;99.90
12655;DHT22;6392;44.644;11.448;2022-12-24T14:04:33;10.70;99.90
12655;DHT22;6392;44.644;11.448;2022-12-24T14:07:02;10.60;99.90
12655;DHT22;6392;44.644;11.448;2022-12-24T14:09:31;10.60;99.90
12655;DHT22;6392;44.644;11.448;2022-12-24T14:14:58;10.60;99.90
12655;DHT22;6392;44.644;11.448;2022-12-24T14:17:47;10.60;99.90
12655;DHT22;6392;44.644;11.448;2022-12-24T14:20:15;10.60;99.90
12655;DHT22;6392;44.644;11.448;2022-12-24T14:22:44;10.60;99.90
12655;DHT22;6392;44.644;11.448;2022-12-24T14:25:15;10.60;99.90
12655;DHT22;6392;44.644;11.448;2022-12-24T14:27:44;10.60;99.90
12655;DHT22;6392;44.644;11.448;2022-12-24T14:30:19;10.60;99.90
12655;DHT22;6392;44.644;11.448;2022-12-24T14:32:48;10.60;99.90
12655;DHT22;6392;44.644;11.448;2022-12-24T14:35:18;10.60;99.90
12655;DHT22;6392;44.644;11.448;2022-12-24T14:37:48;10.70;99.90
12655;DHT22;6392;44.644;11.448;2022-12-24T14:40:18;10.60;99.90
12655;DHT22;6392;44.644;11.448;2022-12-24T14:42:51;10.60;99.90
12655;DHT22;6392;44.644;11.448;2022-12-24T14:45:29;10.60;99.90
12655;DHT22;6392;44.644;11.448;2022-12-24T14:48:05;10.60;99.90
12655;DHT22;6392;44.644;11.448;2022-12-24T14:50:56;10.60;99.90
12655;DHT22;6392;44.644;11.448;2022-12-24T14:53:34;10.60;99.90
12655;DHT22;6392;44.644;11.448;2022-12-24T14:56:09;10.60;99.90
12655;DHT22;6392;44.644;11.448;2022-12-24T14:58:39;10.60;99.90
12655;DHT22;6392;44.644;11.448;2022-12-24T15:01:20;10.60;99.90
12655;DHT22;6392;44.644;11.448;2022-12-24T15:03:59;10.60;99.90
12655;DHT22;6392;44.644;11.448;2022-12-24T15:06:27;10.60;99.90
12655;DHT22;6392;44.644;11.448;2022-12-24T15:08:55;10.60;99.90
12655;DHT22;6392;44.644;11.448;2022-12-24T15:11:22;10.60;99.90
12655;DHT22;6392;44.644;11.448;2022-12-24T15:13:51;10.60;99.90
12655;DHT22;6392;44.644;11.448;2022-12-24T15:16:22;10.60;99.90
12655;DHT22;6392;44.644;11.448;2022-12-24T15:18:54;10.60;99.90
12655;DHT22;6392;44.644;11.448;2022-12-24T15:21:26;10.60;99.90
12655;DHT22;6392;44.644;11.448;2022-12-24T15:23:54;10.60;99.90
12655;DHT22;6392;44.644;11.448;2022-12-24T15:26:27;10.60;99.90
12655;DHT22;6392;44.644;11.448;2022-12-24T15:28:55;10.60;99.90
12655;DHT22;6392;44.644;11.448;2022-12-24T15:31:26;10.50;99.90
12655;DHT22;6392;44.644;11.448;2022-12-24T15:33:55;10.50;99.90
12655;DHT22;6392;44.644;11.448;2022-12-24T15:36:26;10.50;99.90
12655;DHT22;6392;44.644;11.448;2022-12-24T15:38:55;10.50;99.90
12655;DHT22;6392;44.644;11.448;2022-12-24T15:41:25;10.50;99.90
12655;DHT22;6392;44.644;11.448;2022-12-24T15:43:53;10.50;99.90
12655;DHT22;6392;44.644;11.448;2022-12-24T15:46:25;10.60;99.90
12655;DHT22;6392;44.644;11.448;2022-12-24T15:48:54;10.50;99.90
12655;DHT22;6392;44.644;11.448;2022-12-24T15:51:24;10.50;99.90
12655;DHT22;6392;44.644;11.448;2022-12-24T15:53:56;10.50;99.90
12655;DHT22;6392;44.644;11.448;2022-12-24T15:56:31;10.50;99.90
12655;DHT22;6392;44.644;11.448;2022-12-24T15:59:26;10.50;99.90
12655;DHT22;6392;44.644;11.448;2022-12-24T16:02:33;10.50;99.90
12655;DHT22;6392;44.644;11.448;2022-12-24T16:05:29;10.50;99.90
12655;DHT22;6392;44.644;11.448;2022-12-24T16:08:06;10.50;99.90
12655;DHT22;6392;44.644;11.448;2022-12-24T16:10:34;10.40;99.90
12655;DHT22;6392;44.644;11.448;2022-12-24T16:13:12;10.40;99.90
12655;DHT22;6392;44.644;11.448;2022-12-24T16:15:49;10.50;99.90